Terminal Aerodrome Forecast
Issued by NWS

Home | Current Version | Previous Version | Text Only | Print | Product List | Glossary On
Versions: 1 2 3 4 5 6 7 8 9 10 11 12 13 14 15 16 17 18 19 20 21 22 23
279
FTUS43 KGRR 010220 AAA
TAFMKG
TAF AMD
KMKG 010220Z 0102/0124 07010KT P6SM -RA OVC009
     FM010600 08008KT 5SM -RA BR OVC004
     FM011500 08009KT 5SM -RA BR OVC007=

USA.gov is the U.S. government's official web portal to all federal, state and local government web resources and services.